createdAt,value
2018-03-24T00:00:12.611Z,17.60
2018-03-24T00:02:40.911Z,18.70
2018-03-24T00:05:09.183Z,16.13
2018-03-24T00:07:37.583Z,16.90
2018-03-24T00:10:05.836Z,17.90
2018-03-24T00:12:34.108Z,15.97
2018-03-24T00:15:02.439Z,16.90
2018-03-24T00:17:30.674Z,15.53
2018-03-24T00:19:58.939Z,18.10
2018-03-24T00:22:27.217Z,17.77
2018-03-24T00:24:55.520Z,21.17
2018-03-24T00:27:23.783Z,17.20
2018-03-24T00:29:52.051Z,16.07
2018-03-24T00:32:20.289Z,17.00
2018-03-24T00:34:49.370Z,19.33
2018-03-24T00:37:17.640Z,18.10
2018-03-24T00:39:45.915Z,18.90
2018-03-24T00:42:15.271Z,18.47
2018-03-24T00:44:43.509Z,18.77
2018-03-24T00:47:12.632Z,18.00
2018-03-24T00:49:41.663Z,17.90
2018-03-24T00:52:09.918Z,17.50
2018-03-24T00:54:38.174Z,19.60
2018-03-24T00:57:06.434Z,19.50
2018-03-24T00:59:35.437Z,16.13
2018-03-24T01:02:04.447Z,19.13
2018-03-24T01:04:32.710Z,19.30
2018-03-24T01:07:01.497Z,19.40
2018-03-24T01:09:29.785Z,18.83
2018-03-24T01:11:58.078Z,18.93
2018-03-24T01:14:26.324Z,19.23
2018-03-24T01:16:55.352Z,18.43
2018-03-24T01:19:23.627Z,18.27
2018-03-24T01:21:51.908Z,18.03
2018-03-24T01:24:20.159Z,18.50
2018-03-24T01:26:48.437Z,18.97
2018-03-24T01:29:16.722Z,20.23
2018-03-24T01:31:45.016Z,19.93
2018-03-24T01:34:13.266Z,19.60
2018-03-24T01:36:42.329Z,18.73
2018-03-24T01:39:10.575Z,19.70
2018-03-24T01:41:38.834Z,20.57
2018-03-24T01:44:07.123Z,18.23
2018-03-24T01:46:35.394Z,19.50
2018-03-24T01:49:03.646Z,21.10
2018-03-24T01:51:31.940Z,21.60
2018-03-24T01:54:05.986Z,19.53
2018-03-24T01:56:34.268Z,21.30
2018-03-24T01:59:02.506Z,20.03
2018-03-24T02:01:30.778Z,19.97
2018-03-24T02:03:59.792Z,21.13
2018-03-24T02:06:28.071Z,22.30
2018-03-24T02:08:56.389Z,19.40
2018-03-24T02:11:24.667Z,21.37
2018-03-24T02:13:52.964Z,21.90
2018-03-24T02:16:21.194Z,21.20
2018-03-24T02:18:49.469Z,20.90
2018-03-24T02:21:25.558Z,20.80
2018-03-24T02:23:53.831Z,19.90
2018-03-24T02:26:22.068Z,19.20
2018-03-24T02:28:50.353Z,19.47
2018-03-24T02:31:19.377Z,20.03
2018-03-24T02:33:47.638Z,21.70
2018-03-24T02:36:15.883Z,21.30
2018-03-24T02:38:44.145Z,18.53
2018-03-24T02:41:13.155Z,19.67
2018-03-24T02:43:41.456Z,21.97
2018-03-24T02:46:09.696Z,19.00
2018-03-24T02:48:37.962Z,20.77
2018-03-24T02:51:06.225Z,22.97
2018-03-24T02:53:34.494Z,21.83
2018-03-24T02:56:04.255Z,20.90
2018-03-24T02:58:33.266Z,21.70
2018-03-24T03:01:01.526Z,21.10
2018-03-24T03:03:29.801Z,19.30
2018-03-24T03:05:58.077Z,23.27
2018-03-24T03:08:27.106Z,21.13
2018-03-24T03:10:55.352Z,19.50
2018-03-24T03:13:23.616Z,20.77
2018-03-24T03:15:51.886Z,20.83
2018-03-24T03:18:20.898Z,20.53
2018-03-24T03:20:50.173Z,23.03
2018-03-24T03:23:18.447Z,22.90
2018-03-24T03:25:47.497Z,21.30
2018-03-24T03:28:16.609Z,21.77
2018-03-24T03:30:47.446Z,20.90
2018-03-24T03:33:15.726Z,20.20
2018-03-24T03:35:43.999Z,21.53
2018-03-24T03:38:12.267Z,21.03
2018-03-24T03:40:40.590Z,20.97
2018-03-24T03:43:08.831Z,22.70
2018-03-24T03:45:37.079Z,20.30
2018-03-24T03:48:05.338Z,20.83
2018-03-24T03:50:34.375Z,20.73
2018-03-24T03:53:02.670Z,20.90
2018-03-24T03:55:30.903Z,21.80
2018-03-24T03:57:59.166Z,21.63
2018-03-24T04:00:28.191Z,21.13
2018-03-24T04:02:56.434Z,21.90
2018-03-24T04:05:25.469Z,22.33
2018-03-24T04:07:53.739Z,23.07
2018-03-24T04:10:22.017Z,19.53
2018-03-24T04:12:50.276Z,19.40
2018-03-24T04:15:19.297Z,21.23
2018-03-24T04:17:47.559Z,18.57
2018-03-24T04:20:15.812Z,21.37
2018-03-24T04:22:44.840Z,20.17
2018-03-24T04:25:13.094Z,20.07
2018-03-24T04:27:41.357Z,19.00
2018-03-24T04:30:10.399Z,19.50
2018-03-24T04:32:38.653Z,20.63
2018-03-24T04:35:07.015Z,19.60
2018-03-24T04:37:35.254Z,19.67
2018-03-24T04:40:03.536Z,19.57
2018-03-24T04:42:31.816Z,20.27
2018-03-24T04:45:00.049Z,19.90
2018-03-24T04:47:28.306Z,19.07
2018-03-24T04:49:57.305Z,19.77
2018-03-24T04:52:25.583Z,18.40
2018-03-24T04:54:53.836Z,20.27
2018-03-24T04:57:22.122Z,20.37
2018-03-24T04:59:50.344Z,18.37
2018-03-24T05:02:18.609Z,20.67
2018-03-24T05:04:46.861Z,19.70
2018-03-24T05:07:15.923Z,19.17
2018-03-24T05:09:44.154Z,16.70
2018-03-24T05:12:12.397Z,22.30
2018-03-24T05:14:40.706Z,18.20
2018-03-24T05:17:08.988Z,19.50
2018-03-24T05:19:37.241Z,18.53
2018-03-24T05:22:06.287Z,20.50
2018-03-24T05:24:34.525Z,19.87
2018-03-24T05:27:02.801Z,20.37
2018-03-24T05:29:31.060Z,18.17
2018-03-24T05:32:00.095Z,20.87
2018-03-24T05:34:28.359Z,19.70
2018-03-24T05:36:56.611Z,18.33
2018-03-24T05:39:25.621Z,20.77
2018-03-24T05:41:53.986Z,20.97
2018-03-24T05:44:22.206Z,19.00
2018-03-24T05:46:50.506Z,19.10
2018-03-24T05:49:18.743Z,21.30
2018-03-24T05:51:46.986Z,20.83
2018-03-24T05:54:16.056Z,20.43
2018-03-24T05:56:44.319Z,19.30
2018-03-24T05:59:12.550Z,19.77
2018-03-24T06:01:41.576Z,20.17
2018-03-24T06:04:09.829Z,18.60
2018-03-24T06:06:38.088Z,17.60
2018-03-24T06:09:07.114Z,17.80
2018-03-24T06:11:35.386Z,19.83
2018-03-24T06:14:03.656Z,20.67
2018-03-24T06:16:32.669Z,21.23
2018-03-24T06:19:00.921Z,20.90
2018-03-24T06:21:30.821Z,18.93
2018-03-24T06:23:59.847Z,21.07
2018-03-24T06:26:29.674Z,19.57
2018-03-24T06:28:57.906Z,19.97
2018-03-24T06:31:27.570Z,20.20
2018-03-24T06:33:55.803Z,19.90
2018-03-24T06:36:24.832Z,19.57
2018-03-24T06:38:53.099Z,21.63
2018-03-24T06:41:21.349Z,22.47
2018-03-24T06:43:50.389Z,22.97
2018-03-24T06:46:18.673Z,18.97
2018-03-24T06:48:46.915Z,19.13
2018-03-24T06:51:15.212Z,21.33
2018-03-24T06:53:43.486Z,21.50
2018-03-24T06:56:11.749Z,21.33
2018-03-24T06:58:40.847Z,21.17
2018-03-24T07:01:09.887Z,19.63
2018-03-24T07:03:38.153Z,21.93
2018-03-24T07:06:06.410Z,17.77
2018-03-24T07:08:34.685Z,19.73
2018-03-24T07:11:02.932Z,20.80
2018-03-24T07:13:31.311Z,21.30
2018-03-24T07:16:00.316Z,19.67
2018-03-24T07:18:29.366Z,19.97
2018-03-24T07:20:57.612Z,18.33
2018-03-24T07:23:25.878Z,17.90
2018-03-24T07:25:54.313Z,18.87
2018-03-24T07:28:22.569Z,16.80
2018-03-24T07:30:50.833Z,18.40
2018-03-24T07:33:19.098Z,19.07
2018-03-24T07:35:47.359Z,18.43
2018-03-24T07:38:16.426Z,17.83
2018-03-24T07:40:44.680Z,18.40
2018-03-24T07:43:13.014Z,17.03
2018-03-24T07:45:41.246Z,19.30
2018-03-24T07:48:09.506Z,17.03
2018-03-24T07:50:37.750Z,18.43
2018-03-24T07:53:06.086Z,17.47
2018-03-24T07:55:34.315Z,17.83
2018-03-24T07:58:02.605Z,17.00
2018-03-24T08:00:31.635Z,16.60
2018-03-24T08:02:59.879Z,15.93
2018-03-24T08:05:28.158Z,18.63
2018-03-24T08:07:56.404Z,17.13
2018-03-24T08:10:24.677Z,17.70
2018-03-24T08:12:53.687Z,18.10
2018-03-24T08:15:21.938Z,18.10
2018-03-24T08:17:50.680Z,17.83
2018-03-24T08:20:18.904Z,15.67
2018-03-24T08:22:47.182Z,16.80
2018-03-24T08:25:15.452Z,17.67
2018-03-24T08:27:43.720Z,19.53
2018-03-24T08:30:11.992Z,17.40
2018-03-24T08:32:40.243Z,17.60
2018-03-24T08:35:08.500Z,18.30
2018-03-24T08:37:36.775Z,19.27
2018-03-24T08:40:05.055Z,17.73
2018-03-24T08:42:33.303Z,18.57
2018-03-24T08:45:02.364Z,16.40
2018-03-24T08:47:30.646Z,16.70
2018-03-24T08:49:59.045Z,18.30
2018-03-24T08:52:27.285Z,17.30
2018-03-24T08:54:55.535Z,18.83
2018-03-24T08:57:23.787Z,18.77
2018-03-24T08:59:52.050Z,16.70
2018-03-24T09:02:20.311Z,18.37
2018-03-24T09:04:49.478Z,19.10
2018-03-24T09:07:17.759Z,17.67
2018-03-24T09:09:46.017Z,16.83
2018-03-24T09:12:14.319Z,20.40
2018-03-24T09:14:42.565Z,19.60
2018-03-24T09:17:11.966Z,18.13
2018-03-24T09:19:40.287Z,17.33
2018-03-24T09:22:08.568Z,16.43
2018-03-24T09:24:36.822Z,15.17
2018-03-24T09:27:05.917Z,15.67
2018-03-24T09:29:34.541Z,15.10
2018-03-24T09:32:02.819Z,13.83
2018-03-24T09:34:31.106Z,13.43
2018-03-24T09:36:59.349Z,14.70
2018-03-24T09:39:27.642Z,14.50
2018-03-24T09:41:55.910Z,12.80
2018-03-24T09:44:24.170Z,13.10
2018-03-24T09:46:52.416Z,12.73
2018-03-24T09:49:20.950Z,12.50
2018-03-24T09:51:49.216Z,12.40
2018-03-24T09:54:17.450Z,11.60
2018-03-24T09:56:46.480Z,10.70
2018-03-24T09:59:14.815Z,11.30
2018-03-24T10:01:43.149Z,9.50
2018-03-24T10:04:11.409Z,11.40
2018-03-24T10:06:39.683Z,11.00
2018-03-24T10:09:07.949Z,10.67
2018-03-24T10:11:36.969Z,11.03
2018-03-24T10:14:05.250Z,10.67
2018-03-24T10:16:33.528Z,9.43
2018-03-24T10:19:01.813Z,9.30
2018-03-24T10:24:43.328Z,10.50
2018-03-24T10:27:11.586Z,8.97
2018-03-24T10:29:39.879Z,10.00
2018-03-24T10:32:08.145Z,9.70
2018-03-24T10:34:36.443Z,11.00
2018-03-24T10:37:04.671Z,9.90
2018-03-24T10:39:33.675Z,9.10
2018-03-24T10:42:01.958Z,12.80
2018-03-24T10:44:30.220Z,9.17
2018-03-24T10:46:59.278Z,10.73
2018-03-24T10:49:27.530Z,10.60
2018-03-24T10:51:55.815Z,11.40
2018-03-24T10:54:24.097Z,11.00
2018-03-24T10:56:52.390Z,17.50
2018-03-24T10:59:20.637Z,12.37
2018-03-24T11:01:48.928Z,11.00
2018-03-24T11:04:17.471Z,9.67
2018-03-24T11:06:47.286Z,9.60
2018-03-24T11:09:15.546Z,9.73
2018-03-24T11:11:44.610Z,8.43
2018-03-24T11:14:12.853Z,11.90
2018-03-24T11:16:41.928Z,10.20
2018-03-24T11:19:10.999Z,10.80
2018-03-24T11:21:39.276Z,10.73
2018-03-24T11:24:07.510Z,8.53
2018-03-24T11:26:35.761Z,8.80
2018-03-24T11:29:04.069Z,8.50
2018-03-24T11:31:33.128Z,8.73
2018-03-24T11:34:02.169Z,8.17
2018-03-24T11:36:30.480Z,9.53
2018-03-24T11:38:58.693Z,9.20
2018-03-24T11:41:26.959Z,9.77
2018-03-24T11:43:55.224Z,8.90
2018-03-24T11:46:24.282Z,8.57
2018-03-24T11:48:52.585Z,10.20
2018-03-24T11:51:20.867Z,8.70
2018-03-24T11:53:51.980Z,10.20
2018-03-24T11:56:20.270Z,9.07
2018-03-24T11:58:48.551Z,10.77
2018-03-24T12:01:16.817Z,9.37
2018-03-24T12:03:45.858Z,8.77
2018-03-24T12:06:14.884Z,7.97
2018-03-24T12:08:43.140Z,8.90
2018-03-24T12:11:11.457Z,8.90
2018-03-24T12:13:39.734Z,9.53
2018-03-24T12:16:08.025Z,8.57
2018-03-24T12:18:36.269Z,9.17
2018-03-24T12:21:04.600Z,8.60
2018-03-24T12:23:32.873Z,8.83
2018-03-24T12:26:01.361Z,8.80
2018-03-24T12:28:29.641Z,9.37
2018-03-24T12:30:57.887Z,9.10
2018-03-24T12:33:26.203Z,9.33
2018-03-24T12:35:54.535Z,9.47
2018-03-24T12:38:23.180Z,10.23
2018-03-24T12:40:52.252Z,8.03
2018-03-24T12:43:20.506Z,8.97
2018-03-24T12:45:48.794Z,9.73
2018-03-24T12:48:17.084Z,10.30
2018-03-24T12:50:46.129Z,9.77
2018-03-24T12:53:14.385Z,9.17
2018-03-24T12:55:42.692Z,9.80
2018-03-24T12:58:10.968Z,10.23
2018-03-24T13:00:39.274Z,9.13
2018-03-24T13:03:07.538Z,10.17
2018-03-24T13:05:36.611Z,9.93
2018-03-24T13:08:04.895Z,9.70
2018-03-24T13:10:33.163Z,9.97
2018-03-24T13:13:01.439Z,9.63
2018-03-24T13:15:29.705Z,10.13
2018-03-24T13:17:57.984Z,9.70
2018-03-24T13:20:26.994Z,11.10
2018-03-24T13:22:55.274Z,10.23
2018-03-24T13:25:23.582Z,9.93
2018-03-24T13:27:51.844Z,11.10
2018-03-24T13:30:20.106Z,10.50
2018-03-24T13:32:48.379Z,11.03
2018-03-24T13:35:16.691Z,10.87
2018-03-24T13:37:45.398Z,10.70
2018-03-24T13:40:13.690Z,10.43
2018-03-24T13:42:42.793Z,11.43
2018-03-24T13:45:11.094Z,10.07
2018-03-24T13:47:40.118Z,12.43
2018-03-24T13:50:08.384Z,11.20
2018-03-24T13:52:36.704Z,12.27
2018-03-24T13:55:04.982Z,11.87
2018-03-24T13:57:33.256Z,12.50
2018-03-24T14:00:01.517Z,12.83
2018-03-24T14:02:29.783Z,12.90
2018-03-24T14:04:58.063Z,13.20
2018-03-24T14:07:26.381Z,13.50
2018-03-24T14:09:54.637Z,12.67
2018-03-24T14:12:23.672Z,12.90
2018-03-24T14:14:52.017Z,13.90
2018-03-24T14:17:20.731Z,13.17
2018-03-24T14:19:49.012Z,14.17
2018-03-24T14:22:18.054Z,13.20
2018-03-24T14:24:46.424Z,13.73
2018-03-24T14:27:14.734Z,15.20
2018-03-24T14:29:43.036Z,15.20
2018-03-24T14:32:11.354Z,15.27
2018-03-24T14:34:39.627Z,13.87
2018-03-24T14:37:07.929Z,14.10
2018-03-24T14:39:36.184Z,14.03
2018-03-24T14:42:04.489Z,14.97
2018-03-24T14:44:32.763Z,14.77
2018-03-24T14:47:01.067Z,16.40
2018-03-24T14:49:29.407Z,14.03
2018-03-24T14:51:57.645Z,12.73
2018-03-24T14:54:25.946Z,13.53
2018-03-24T14:56:55.047Z,14.63
2018-03-24T14:59:23.374Z,15.00
2018-03-24T15:01:51.655Z,12.73
2018-03-24T15:04:20.885Z,14.30
2018-03-24T15:06:49.945Z,14.80
2018-03-24T15:09:18.231Z,14.90
2018-03-24T15:11:47.282Z,14.80
2018-03-24T15:14:15.598Z,16.13
2018-03-24T15:16:43.882Z,14.87
2018-03-24T15:19:12.164Z,13.80
2018-03-24T15:21:41.456Z,17.07
2018-03-24T15:24:10.477Z,15.80
2018-03-24T15:26:38.787Z,16.70
2018-03-24T15:29:19.011Z,14.80
2018-03-24T15:31:59.256Z,15.70
2018-03-24T15:34:39.381Z,14.90
2018-03-24T15:37:07.634Z,15.00
2018-03-24T15:39:35.926Z,15.53
2018-03-24T15:42:04.206Z,14.53
2018-03-24T15:44:32.516Z,14.30
2018-03-24T15:47:00.823Z,14.30
2018-03-24T15:49:29.122Z,13.77
2018-03-24T15:51:57.475Z,15.13
2018-03-24T15:54:26.538Z,15.33
2018-03-24T15:56:54.784Z,14.83
2018-03-24T15:59:23.086Z,15.53
2018-03-24T16:01:51.392Z,15.50
2018-03-24T16:04:20.029Z,14.73
2018-03-24T16:06:48.336Z,13.20
2018-03-24T16:09:16.589Z,16.23
2018-03-24T16:11:44.880Z,14.87
2018-03-24T16:14:13.178Z,15.40
2018-03-24T16:16:42.308Z,15.50
2018-03-24T16:19:10.602Z,13.57
2018-03-24T16:21:38.936Z,13.20
2018-03-24T16:24:07.220Z,16.33
2018-03-24T16:26:35.512Z,14.67
2018-03-24T16:29:04.528Z,14.83
2018-03-24T16:31:32.816Z,12.60
2018-03-24T16:34:01.088Z,13.70
2018-03-24T16:36:29.387Z,14.17
2018-03-24T16:38:57.696Z,15.20
2018-03-24T16:41:26.751Z,15.60
2018-03-24T16:43:55.060Z,15.80
2018-03-24T16:46:23.334Z,14.83
2018-03-24T16:48:51.621Z,15.23
2018-03-24T16:51:19.886Z,13.50
2018-03-24T16:53:48.116Z,13.67
2018-03-24T16:56:16.439Z,15.90
2018-03-24T16:58:44.803Z,14.80
2018-03-24T17:01:13.943Z,15.20
2018-03-24T17:03:43.005Z,15.70
2018-03-24T17:06:11.308Z,15.77
2018-03-24T17:08:40.334Z,15.77
2018-03-24T17:11:08.626Z,17.23
2018-03-24T17:13:37.030Z,17.50
2018-03-24T17:16:05.282Z,17.50
2018-03-24T17:18:33.595Z,16.03
2018-03-24T17:21:01.898Z,15.40
2018-03-24T17:23:31.091Z,15.10
2018-03-24T17:26:00.262Z,15.17
2018-03-24T17:28:29.367Z,16.57
2018-03-24T17:30:57.685Z,16.10
2018-03-24T17:33:25.925Z,17.13
2018-03-24T17:35:54.317Z,17.50
2018-03-24T17:38:22.619Z,18.23
2018-03-24T17:40:51.675Z,17.73
2018-03-24T17:43:19.939Z,16.97
2018-03-24T17:45:48.767Z,31.47
2018-03-24T17:48:17.053Z,20.73
2018-03-24T17:50:45.361Z,21.63
2018-03-24T17:53:13.643Z,13.60
2018-03-24T17:55:42.680Z,11.33
2018-03-24T17:58:10.894Z,13.00
2018-03-24T18:00:40.055Z,15.17
2018-03-24T18:03:08.424Z,15.70
2018-03-24T18:05:36.787Z,14.03
2018-03-24T18:08:05.818Z,12.13
2018-03-24T18:10:34.859Z,12.90
2018-03-24T18:13:03.519Z,14.13
2018-03-24T18:15:31.780Z,12.77
2018-03-24T18:18:00.551Z,14.67
2018-03-24T18:20:28.952Z,15.10
2018-03-24T18:22:57.216Z,14.60
2018-03-24T18:25:26.033Z,14.80
2018-03-24T18:27:55.933Z,14.97
2018-03-24T18:30:24.389Z,14.83
2018-03-24T18:32:53.101Z,14.30
2018-03-24T18:35:21.414Z,17.83
2018-03-24T18:37:50.464Z,14.10
2018-03-24T18:40:18.768Z,13.97
2018-03-24T18:42:47.072Z,14.67
2018-03-24T18:45:15.376Z,14.80
2018-03-24T18:47:44.605Z,14.87
2018-03-24T18:50:13.654Z,12.07
2018-03-24T18:52:41.937Z,14.87
2018-03-24T18:55:10.669Z,13.63
2018-03-24T18:57:40.070Z,14.40
2018-03-24T19:00:09.128Z,13.23
2018-03-24T19:02:37.622Z,12.67
2018-03-24T19:05:05.913Z,13.93
2018-03-24T19:07:34.648Z,14.27
2018-03-24T19:10:03.695Z,13.70
2018-03-24T19:12:33.128Z,19.27
2018-03-24T19:15:03.022Z,20.47
2018-03-24T19:17:31.586Z,16.90
2018-03-24T19:20:00.621Z,17.40
2018-03-24T19:22:29.605Z,16.23
2018-03-24T19:24:58.104Z,15.50
2018-03-24T19:27:27.276Z,17.50
2018-03-24T19:29:55.526Z,17.50
2018-03-24T19:32:24.520Z,16.93
2018-03-24T19:34:53.694Z,16.47
2018-03-24T19:37:22.346Z,15.20
2018-03-24T19:39:51.397Z,17.87
2018-03-24T19:42:19.927Z,18.03
2018-03-24T19:44:48.958Z,14.80
2018-03-24T19:47:17.277Z,16.73
2018-03-24T19:49:46.176Z,15.47
2018-03-24T19:52:14.778Z,17.50
2018-03-24T19:54:43.835Z,15.40
2018-03-24T19:57:12.119Z,16.57
2018-03-24T19:59:40.390Z,14.57
2018-03-24T20:02:09.013Z,17.23
2018-03-24T20:04:38.423Z,15.80
2018-03-24T20:07:07.929Z,16.70
2018-03-24T20:09:36.333Z,18.23
2018-03-24T20:12:05.910Z,16.90
2018-03-24T20:14:35.423Z,17.97
2018-03-24T20:17:04.503Z,15.70
2018-03-24T20:19:33.203Z,17.53
2018-03-24T20:22:01.561Z,16.83
2018-03-24T20:24:30.108Z,17.00
2018-03-24T20:26:59.488Z,17.87
2018-03-24T20:29:28.288Z,17.00
2018-03-24T20:31:56.650Z,16.20
2018-03-24T20:34:26.100Z,15.70
2018-03-24T20:36:54.427Z,18.50
2018-03-24T20:39:22.703Z,19.50
2018-03-24T20:41:52.203Z,20.07
2018-03-24T20:44:21.306Z,21.40
2018-03-24T20:46:49.851Z,20.97
2018-03-24T20:49:18.146Z,20.47
2018-03-24T20:51:46.459Z,22.83
2018-03-24T20:54:15.477Z,19.60
2018-03-24T20:56:44.232Z,21.20
2018-03-24T20:59:14.150Z,23.53
2018-03-24T21:01:42.451Z,21.03
2018-03-24T21:04:11.478Z,18.10
2018-03-24T21:06:39.805Z,18.40
2018-03-24T21:09:08.157Z,17.60
2018-03-24T21:11:36.431Z,17.80
2018-03-24T21:14:05.705Z,17.63
2018-03-24T21:16:33.982Z,20.17
2018-03-24T21:19:02.265Z,18.27
2018-03-24T21:21:30.649Z,17.43
2018-03-24T21:23:59.831Z,18.10
2018-03-24T21:26:28.171Z,17.60
2018-03-24T21:28:56.641Z,17.97
2018-03-24T21:31:26.222Z,19.43
2018-03-24T21:33:54.639Z,19.53
2018-03-24T21:36:23.712Z,21.43
2018-03-24T21:38:52.333Z,17.73
2018-03-24T21:41:21.379Z,19.07
2018-03-24T21:43:49.774Z,20.73
2018-03-24T21:46:18.038Z,22.23
2018-03-24T21:48:46.382Z,18.77
2018-03-24T21:51:14.676Z,20.53
2018-03-24T21:53:42.986Z,18.40
2018-03-24T21:56:11.304Z,18.83
2018-03-24T21:58:39.765Z,21.10
2018-03-24T22:01:08.019Z,19.57
2018-03-24T22:03:36.893Z,16.37
2018-03-24T22:06:05.155Z,17.53
2018-03-24T22:08:33.416Z,19.23
2018-03-24T22:11:02.479Z,19.17
2018-03-24T22:13:30.756Z,18.93
2018-03-24T22:16:00.053Z,20.50
2018-03-24T22:18:28.355Z,18.80
2018-03-24T22:20:57.415Z,20.13
2018-03-24T22:23:25.678Z,19.70
2018-03-24T22:25:53.973Z,19.47
2018-03-24T22:28:22.218Z,17.57
2018-03-24T22:30:50.524Z,20.33
2018-03-24T22:33:18.833Z,20.07
2018-03-24T22:35:47.081Z,20.97
2018-03-24T22:38:15.361Z,18.93
2018-03-24T22:40:43.648Z,19.80
2018-03-24T22:43:11.901Z,18.00
2018-03-24T22:45:40.197Z,18.87
2018-03-24T22:48:08.480Z,19.63
2018-03-24T22:50:36.753Z,18.10
2018-03-24T22:53:05.081Z,17.80
2018-03-24T22:55:33.891Z,18.50
2018-03-24T22:58:02.159Z,20.20
2018-03-24T23:00:32.086Z,18.50
2018-03-24T23:03:00.384Z,17.10
2018-03-24T23:05:29.593Z,19.00
2018-03-24T23:07:57.887Z,18.47
2018-03-24T23:10:26.138Z,18.87
2018-03-24T23:12:54.435Z,20.57
2018-03-24T23:15:22.745Z,21.00
2018-03-24T23:17:51.051Z,17.33
2018-03-24T23:20:19.303Z,18.13
2018-03-24T23:22:47.591Z,19.27
2018-03-24T23:25:18.555Z,19.63
2018-03-24T23:27:46.848Z,19.30
2018-03-24T23:30:15.105Z,20.10
2018-03-24T23:32:43.381Z,19.40
2018-03-24T23:35:11.889Z,22.20
2018-03-24T23:37:40.164Z,21.27
2018-03-24T23:40:08.437Z,18.87
2018-03-24T23:42:36.695Z,20.60
2018-03-24T23:45:04.980Z,18.80
2018-03-24T23:47:33.317Z,21.00
2018-03-24T23:50:02.387Z,18.27
2018-03-24T23:52:30.647Z,19.30
2018-03-24T23:54:58.901Z,18.87
2018-03-24T23:57:27.173Z,16.77
2018-03-24T23:59:55.413Z,18.10
